Climax, Canada
Current Conditions -  °F | °C
As of 12:14 PM on Thursday 29 Jan 2015 (Local Time) from KHVR Reporting Station
Haze Haze  
Wind Chill: 29°   Ceiling: Unl
Heat Index: 29°   Visibility: 4mi
Dew Point: 27°   Wind: 0mph
Humidity: 92%   Direction: NA
Pressure: 30.33"   Gusts: NA
Location:  49.2°N, 108.38°W
Report Text: KHVR 291814Z AUTO 00000KT 4SM BR SCT002 M02/M03 A3033 RMK AO2 T10171028
Loading
Personal Weather Stations






























Interactive Weather Map New forecast layout! Learn more

10-Day Weather Forecast

Advertisements
Track Severe Weather on mobile